Time;durP1;ratioP1;P1;durP2;ratioP2;P2;SDS_P1;SDS_P2;PMS_P1;PMS_P2;Temp;Humidity;BMP_temperature;BMP_pressure;BME280_temperature;BME280_humidity;BME280_pressure;Samples;Min_cycle;Max_cycle;Signal;HPM_P1;HPM_P2
2023/01/27 00:00:57;;;;;;;11.07;6.90;;;5.30;99.90;;;;;;5092946;28;20438;-78
2023/01/27 00:03:23;;;;;;;11.53;5.90;;;5.30;99.90;;;;;;5092164;28;20543;-77
2023/01/27 00:05:49;;;;;;;11.20;6.40;;;5.20;99.90;;;;;;5092845;28;20357;-79
2023/01/27 00:08:16;;;;;;;12.77;6.70;;;5.20;99.90;;;;;;5092155;28;20097;-77
2023/01/27 00:10:42;;;;;;;14.15;7.22;;;5.20;99.90;;;;;;5093242;28;20127;-77
2023/01/27 00:13:26;;;;;;;13.70;7.43;;;5.20;99.90;;;;;;5092688;28;20131;-77
2023/01/27 00:15:52;;;;;;;10.77;6.40;;;5.10;99.90;;;;;;5091628;28;20385;-78
2023/01/27 00:18:17;;;;;;;9.93;7.03;;;5.10;99.90;;;;;;5093135;28;20072;-77
2023/01/27 00:26:14;;;;;;;11.63;6.95;;;4.90;99.90;;;;;;5092673;28;20048;-77
2023/01/27 00:28:42;;;;;;;13.40;7.63;;;4.90;99.90;;;;;;5093023;28;20046;-77
2023/01/27 00:33:55;;;;;;;14.23;7.88;;;4.90;99.90;;;;;;5092360;28;20507;-77
2023/01/27 00:36:21;;;;;;;12.38;8.40;;;4.90;99.90;;;;;;5092999;28;20040;-77
2023/01/27 00:38:47;;;;;;;14.38;8.80;;;4.90;99.90;;;;;;5092827;28;20040;-77
2023/01/27 00:41:18;;;;;;;13.97;8.87;;;4.80;99.90;;;;;;5092510;28;20096;-77
2023/01/27 00:43:49;;;;;;;15.70;8.98;;;4.80;99.90;;;;;;5093013;28;20051;-77
2023/01/27 00:46:17;;;;;;;16.92;8.75;;;4.80;99.90;;;;;;5092529;28;20056;-77
2023/01/27 00:48:43;;;;;;;11.98;7.40;;;4.80;99.90;;;;;;5091477;28;20071;-77
2023/01/27 00:51:10;;;;;;;11.10;8.07;;;4.80;99.90;;;;;;5092568;28;20051;-77
2023/01/27 00:53:36;;;;;;;12.73;7.63;;;4.80;99.90;;;;;;5092730;28;20048;-77
2023/01/27 00:56:02;;;;;;;14.40;7.87;;;4.80;99.90;;;;;;5091095;28;20059;-77
2023/01/27 00:58:28;;;;;;;14.80;7.93;;;4.80;99.90;;;;;;5092945;28;20044;-76
2023/01/27 01:00:59;;;;;;;11.97;6.80;;;4.80;99.90;;;;;;5092621;28;20113;-77
2023/01/27 01:03:30;;;;;;;10.73;7.38;;;4.80;99.90;;;;;;5091735;28;20052;-77
2023/01/27 01:05:57;;;;;;;9.65;7.07;;;4.80;99.90;;;;;;5092679;28;20055;-77
2023/01/27 01:08:23;;;;;;;10.55;6.68;;;4.80;99.90;;;;;;5092172;28;20535;-76
2023/01/27 01:10:49;;;;;;;9.80;6.87;;;4.80;99.90;;;;;;5092660;28;20088;-76
2023/01/27 01:13:14;;;;;;;11.93;6.63;;;4.80;99.90;;;;;;5092210;28;20047;-76
2023/01/27 01:15:41;;;;;;;9.33;6.00;;;4.80;99.90;;;;;;5092468;28;20150;-76
2023/01/27 01:18:08;;;;;;;10.95;6.10;;;4.90;99.90;;;;;;5091237;28;20411;-77
2023/01/27 01:20:38;;;;;;;13.48;6.20;;;4.90;99.90;;;;;;5092665;28;20119;-76
2023/01/27 01:23:05;;;;;;;13.50;6.43;;;4.80;99.90;;;;;;5092220;28;20044;-77
2023/01/27 01:25:31;;;;;;;11.15;5.65;;;4.80;99.90;;;;;;5094195;28;20132;-77
2023/01/27 01:27:57;;;;;;;8.40;5.50;;;4.80;99.90;;;;;;5096310;28;20075;-77
2023/01/27 01:30:25;;;;;;;14.67;5.73;;;4.80;99.90;;;;;;5095771;28;20411;-77
2023/01/27 01:32:52;;;;;;;9.95;5.72;;;4.80;99.90;;;;;;5096119;28;20161;-77
2023/01/27 01:35:18;;;;;;;12.30;5.95;;;4.80;99.90;;;;;;5095597;28;20048;-77
2023/01/27 01:37:44;;;;;;;11.43;5.75;;;4.80;99.90;;;;;;5095843;28;20507;-77
2023/01/27 01:40:13;;;;;;;9.98;5.72;;;4.70;99.90;;;;;;5095621;28;20063;-77
2023/01/27 01:42:52;;;;;;;14.32;6.07;;;4.80;99.90;;;;;;5094522;28;20055;-77
2023/01/27 01:45:47;;;;;;;10.93;5.60;;;4.80;99.90;;;;;;5095390;28;20126;-77
2023/01/27 01:48:24;;;;;;;12.90;5.53;;;4.80;99.90;;;;;;5094216;28;20092;-77
2023/01/27 01:51:13;;;;;;;11.45;5.90;;;4.80;99.90;;;;;;5077901;28;20047;-77
2023/01/27 01:53:52;;;;;;;12.70;5.70;;;4.80;99.90;;;;;;5095850;28;20051;-76
2023/01/27 01:56:23;;;;;;;11.80;5.90;;;4.70;99.90;;;;;;5095350;28;20051;-77
2023/01/27 01:58:49;;;;;;;15.90;5.78;;;4.70;99.90;;;;;;5095664;28;20040;-77
2023/01/27 02:01:18;;;;;;;12.35;5.60;;;4.70;99.90;;;;;;5094038;28;20044;-77
2023/01/27 02:03:48;;;;;;;11.07;5.10;;;4.80;99.90;;;;;;5095264;28;20051;-77
2023/01/27 02:06:14;;;;;;;8.98;5.40;;;4.80;99.90;;;;;;5094783;28;20557;-77
2023/01/27 02:08:45;;;;;;;8.07;5.40;;;4.90;99.90;;;;;;5095132;28;20062;-76
2023/01/27 02:11:11;;;;;;;12.32;5.07;;;4.80;99.90;;;;;;5094990;28;20048;-77
2023/01/27 02:13:38;;;;;;;11.13;6.00;;;4.80;99.90;;;;;;5095263;28;20385;-77
2023/01/27 02:16:05;;;;;;;10.10;5.05;;;4.80;99.90;;;;;;5094964;28;20044;-77
2023/01/27 02:18:30;;;;;;;9.75;5.55;;;4.80;99.90;;;;;;5095312;28;20040;-76
2023/01/27 02:20:57;;;;;;;7.77;4.80;;;4.80;99.90;;;;;;5093759;28;20044;-76
2023/01/27 02:24:14;;;;;;;10.75;5.72;;;4.80;99.90;;;;;;5094693;28;20044;-76
2023/01/27 02:26:43;;;;;;;9.55;5.47;;;4.80;99.90;;;;;;5049812;28;20083;-76
2023/01/27 02:29:14;;;;;;;13.20;5.95;;;4.80;99.90;;;;;;5094685;28;20060;-77
2023/01/27 02:31:40;;;;;;;10.90;5.15;;;4.80;99.90;;;;;;5094515;28;20068;-76
2023/01/27 02:34:13;;;;;;;10.65;5.30;;;4.70;99.90;;;;;;5094471;28;20177;-77
2023/01/27 02:36:51;;;;;;;13.13;5.20;;;4.70;99.90;;;;;;5093679;28;20048;-76
2023/01/27 02:39:21;;;;;;;9.27;4.15;;;4.70;99.90;;;;;;5094412;28;20130;-77
2023/01/27 02:41:51;;;;;;;11.75;4.25;;;4.70;99.90;;;;;;5094719;28;20054;-76
2023/01/27 02:44:16;;;;;;;12.07;4.60;;;4.70;99.90;;;;;;5094347;28;20082;-77
2023/01/27 02:46:42;;;;;;;11.10;4.07;;;4.70;99.90;;;;;;5094403;28;20044;-76
2023/01/27 02:49:08;;;;;;;11.70;4.20;;;4.70;99.90;;;;;;5094186;28;20116;-77
2023/01/27 02:51:34;;;;;;;11.07;4.23;;;4.70;99.90;;;;;;5094434;28;20477;-77
2023/01/27 02:54:00;;;;;;;8.63;3.37;;;4.70;99.90;;;;;;5094374;28;20061;-77
2023/01/27 02:56:25;;;;;;;13.33;4.07;;;4.70;99.90;;;;;;5094101;28;20058;-77
2023/01/27 02:58:51;;;;;;;9.10;4.00;;;4.70;99.90;;;;;;5094268;28;20093;-76
2023/01/27 03:01:17;;;;;;;8.33;3.70;;;4.60;99.90;;;;;;5093017;28;20051;-77
2023/01/27 03:03:45;;;;;;;11.40;3.20;;;4.70;99.90;;;;;;5094105;28;20044;-77
2023/01/27 03:06:12;;;;;;;11.63;3.05;;;4.70;99.90;;;;;;5092852;28;20055;-78
2023/01/27 03:08:37;;;;;;;5.68;2.92;;;4.60;99.90;;;;;;5094126;28;20044;-77
2023/01/27 03:11:03;;;;;;;12.30;3.43;;;4.70;99.90;;;;;;5094121;28;20044;-77
2023/01/27 03:13:29;;;;;;;10.37;3.80;;;4.70;99.90;;;;;;5093762;28;20051;-77
2023/01/27 03:18:46;;;;;;;9.73;3.10;;;4.60;99.90;;;;;;5093568;28;20507;-77
2023/01/27 03:21:12;;;;;;;9.18;2.45;;;4.60;99.90;;;;;;5093606;28;20487;-77
2023/01/27 03:23:38;;;;;;;7.90;2.13;;;4.70;99.90;;;;;;5092169;28;20047;-77
2023/01/27 03:26:08;;;;;;;7.27;1.83;;;4.70;99.90;;;;;;5093871;28;20109;-77
2023/01/27 03:28:34;;;;;;;7.00;1.83;;;4.70;99.90;;;;;;5093389;28;20032;-77
2023/01/27 03:31:18;;;;;;;9.45;2.88;;;4.80;99.90;;;;;;5093678;28;20054;-77
2023/01/27 03:33:46;;;;;;;6.10;2.03;;;4.80;99.90;;;;;;5093948;28;20079;-78
2023/01/27 03:47:10;;;;;;;3.80;1.50;;;4.90;99.90;;;;;;5092205;28;20404;-77
2023/01/27 03:49:36;;;;;;;9.70;1.83;;;4.90;99.90;;;;;;5092952;28;20040;-76
2023/01/27 03:52:02;;;;;;;4.83;1.73;;;4.80;99.90;;;;;;5092433;28;20097;-77
2023/01/27 03:54:27;;;;;;;6.30;1.93;;;4.80;99.90;;;;;;5093066;28;20052;-77
2023/01/27 03:56:53;;;;;;;7.13;1.50;;;4.70;99.90;;;;;;5092214;28;20040;-77
2023/01/27 03:59:19;;;;;;;6.37;1.40;;;4.70;99.90;;;;;;5075130;28;20062;-77
2023/01/27 04:01:45;;;;;;;5.00;1.40;;;4.70;99.90;;;;;;5075494;28;20052;-76
2023/01/27 04:06:59;;;;;;;4.85;1.30;;;4.70;99.90;;;;;;5093334;28;20052;-77
2023/01/27 04:09:35;;;;;;;6.68;1.70;;;4.70;99.90;;;;;;5092879;28;20048;-77
2023/01/27 04:12:04;;;;;;;5.22;1.92;;;4.60;99.90;;;;;;5093220;28;20044;-76
2023/01/27 04:14:38;;;;;;;4.90;1.40;;;4.60;99.90;;;;;;5092673;28;20087;-76
2023/01/27 04:17:10;;;;;;;5.32;1.50;;;4.60;99.90;;;;;;5093082;28;20048;-77
2023/01/27 04:19:36;;;;;;;7.18;2.13;;;4.50;99.90;;;;;;5092807;28;20052;-76
2023/01/27 04:22:03;;;;;;;4.10;1.33;;;4.50;99.90;;;;;;5092909;28;20043;-76
2023/01/27 04:24:28;;;;;;;6.57;1.40;;;4.50;99.90;;;;;;5092636;28;20105;-77
2023/01/27 04:27:06;;;;;;;4.17;1.60;;;4.50;99.90;;;;;;5092176;28;20044;-76
2023/01/27 04:29:35;;;;;;;4.97;1.70;;;4.60;99.90;;;;;;5092647;28;20266;-76
2023/01/27 04:32:02;;;;;;;5.78;1.30;;;4.50;99.90;;;;;;5092758;28;20055;-76
2023/01/27 04:34:28;;;;;;;10.13;1.42;;;4.50;99.90;;;;;;5092529;28;20059;-77
2023/01/27 04:36:55;;;;;;;5.03;1.40;;;4.50;99.90;;;;;;5092813;28;20048;-76
2023/01/27 04:39:21;;;;;;;3.92;1.30;;;4.50;99.90;;;;;;5091535;28;20388;-77
2023/01/27 04:41:48;;;;;;;7.55;1.35;;;4.40;99.90;;;;;;5092799;28;20048;-76
2023/01/27 04:44:14;;;;;;;5.38;1.50;;;4.40;99.90;;;;;;5092841;28;20131;-76
2023/01/27 04:46:40;;;;;;;4.18;1.45;;;4.50;99.90;;;;;;5092347;28;20052;-77
2023/01/27 04:49:06;;;;;;;6.50;1.40;;;4.40;99.90;;;;;;5092646;28;20113;-76
2023/01/27 04:51:33;;;;;;;7.55;1.48;;;4.40;99.90;;;;;;5092469;28;20090;-77
2023/01/27 04:53:59;;;;;;;5.05;1.48;;;4.50;99.90;;;;;;5092712;28;20128;-76
2023/01/27 04:56:27;;;;;;;4.65;1.40;;;4.40;99.90;;;;;;5092048;28;20556;-77
2023/01/27 04:58:56;;;;;;;4.90;1.58;;;4.40;99.90;;;;;;5092665;28;20044;-76
2023/01/27 05:01:22;;;;;;;6.20;1.60;;;4.30;99.90;;;;;;5094818;28;20083;-78
2023/01/27 05:03:48;;;;;;;3.80;1.30;;;4.30;99.90;;;;;;5096419;28;20432;-77
2023/01/27 05:06:14;;;;;;;5.67;1.43;;;4.30;99.90;;;;;;5095465;28;20058;-77
2023/01/27 05:08:40;;;;;;;6.28;1.63;;;4.20;99.90;;;;;;5095990;28;20050;-76
2023/01/27 05:11:06;;;;;;;9.13;2.38;;;4.20;99.90;;;;;;5096455;28;20040;-77
2023/01/27 05:13:32;;;;;;;13.10;1.60;;;4.20;99.90;;;;;;5096020;28;20395;-77
2023/01/27 05:16:05;;;;;;;4.67;1.70;;;4.20;99.90;;;;;;5096310;28;20083;-76
2023/01/27 05:18:31;;;;;;;5.32;1.50;;;4.20;99.90;;;;;;5095920;28;20132;-76
2023/01/27 05:21:04;;;;;;;8.43;1.40;;;4.20;99.90;;;;;;5096194;28;20127;-77
2023/01/27 05:23:35;;;;;;;8.05;1.60;;;4.20;99.90;;;;;;5095865;28;20048;-77
2023/01/27 05:26:11;;;;;;;5.25;1.50;;;4.10;99.90;;;;;;5078516;28;20093;-76
2023/01/27 05:28:39;;;;;;;8.73;1.63;;;4.20;99.90;;;;;;5095716;28;20047;-77
2023/01/27 05:31:13;;;;;;;6.30;1.60;;;4.10;99.90;;;;;;5096019;28;20154;-76
2023/01/27 05:33:40;;;;;;;5.60;1.48;;;4.10;99.90;;;;;;5095485;28;20056;-77
2023/01/27 05:36:07;;;;;;;5.97;1.58;;;4.10;99.90;;;;;;5095852;28;20056;-77
2023/01/27 05:38:34;;;;;;;4.07;1.60;;;4.10;99.90;;;;;;5095656;28;20044;-77
2023/01/27 05:41:05;;;;;;;6.50;1.65;;;4.20;99.90;;;;;;5095790;28;20087;-77
2023/01/27 05:43:33;;;;;;;6.47;1.60;;;4.20;99.90;;;;;;5095437;28;20052;-77
2023/01/27 05:46:11;;;;;;;7.88;1.40;;;4.10;99.90;;;;;;5094731;28;20431;-77
2023/01/27 05:48:40;;;;;;;6.13;1.40;;;4.20;99.90;;;;;;5094133;28;20052;-77
2023/01/27 05:51:06;;;;;;;5.25;1.30;;;4.20;99.90;;;;;;5095546;28;20116;-77
2023/01/27 05:53:33;;;;;;;5.65;1.35;;;4.20;99.90;;;;;;5095262;28;20044;-77
2023/01/27 05:55:59;;;;;;;3.42;1.17;;;4.20;99.90;;;;;;5095443;28;20044;-77
2023/01/27 05:58:26;;;;;;;4.53;1.23;;;4.20;99.90;;;;;;5095403;28;20048;-77
2023/01/27 06:00:52;;;;;;;6.05;1.70;;;4.20;99.90;;;;;;5095037;28;20042;-77
2023/01/27 06:03:18;;;;;;;3.25;1.08;;;4.10;99.90;;;;;;5095637;28;20048;-77
2023/01/27 06:05:56;;;;;;;6.00;1.47;;;4.10;99.90;;;;;;5095195;28;20047;-77
2023/01/27 06:08:24;;;;;;;3.72;1.30;;;4.10;99.90;;;;;;5095139;28;20352;-77
2023/01/27 06:10:50;;;;;;;4.43;1.40;;;4.10;99.90;;;;;;5076849;28;20121;-77
2023/01/27 06:13:16;;;;;;;10.68;1.58;;;4.10;99.90;;;;;;5094178;28;20048;-77
2023/01/27 06:15:44;;;;;;;7.10;1.70;;;4.10;99.90;;;;;;5094551;28;20408;-77
2023/01/27 06:18:11;;;;;;;14.27;2.15;;;4.10;99.90;;;;;;5095021;28;20047;-78
2023/01/27 06:20:37;;;;;;;4.10;1.40;;;4.10;99.90;;;;;;5094636;28;20170;-77
2023/01/27 06:23:04;;;;;;;7.05;1.95;;;4.20;99.90;;;;;;5094362;28;20056;-77
2023/01/27 06:25:30;;;;;;;5.72;1.70;;;4.20;99.90;;;;;;5094869;28;20511;-77
2023/01/27 06:27:56;;;;;;;5.73;1.73;;;4.20;99.90;;;;;;5093429;28;20081;-77
2023/01/27 06:30:22;;;;;;;6.20;2.15;;;4.20;99.90;;;;;;5093977;28;20377;-77
2023/01/27 06:32:48;;;;;;;5.05;1.70;;;4.20;99.90;;;;;;5094534;28;20511;-77
2023/01/27 06:35:14;;;;;;;8.13;1.90;;;4.20;99.90;;;;;;5094868;28;20083;-76
2023/01/27 06:37:40;;;;;;;8.07;2.20;;;4.20;99.90;;;;;;5093381;28;20062;-77
2023/01/27 06:40:06;;;;;;;6.17;1.83;;;4.20;99.90;;;;;;5094642;28;20414;-76
2023/01/27 06:42:32;;;;;;;6.03;2.13;;;4.20;99.90;;;;;;5093662;28;20055;-77
2023/01/27 06:44:57;;;;;;;9.93;2.17;;;4.20;99.90;;;;;;5094373;28;20048;-77
2023/01/27 06:47:23;;;;;;;5.50;1.50;;;4.20;99.90;;;;;;5094527;28;20036;-76
2023/01/27 06:49:49;;;;;;;3.67;1.43;;;4.10;99.90;;;;;;5094112;28;20047;-76
2023/01/27 06:52:14;;;;;;;5.07;1.40;;;4.10;99.90;;;;;;5093613;28;20117;-77
2023/01/27 06:54:40;;;;;;;6.67;1.63;;;4.10;99.90;;;;;;5094267;28;20044;-77
2023/01/27 06:57:09;;;;;;;5.17;1.70;;;4.20;99.90;;;;;;5093306;28;20059;-77
2023/01/27 06:59:35;;;;;;;8.35;2.25;;;4.10;99.90;;;;;;5094149;28;20507;-77
2023/01/27 07:02:00;;;;;;;5.53;1.50;;;4.10;99.90;;;;;;5093532;28;20048;-77
2023/01/27 07:04:26;;;;;;;8.23;1.77;;;4.20;99.90;;;;;;5094045;28;20052;-77
2023/01/27 07:06:52;;;;;;;6.03;1.57;;;4.20;99.90;;;;;;5075870;28;20100;-77
2023/01/27 07:09:17;;;;;;;6.80;1.57;;;4.20;99.90;;;;;;5094291;28;20086;-76
2023/01/27 07:11:44;;;;;;;7.23;1.40;;;4.10;99.90;;;;;;5075955;28;20472;-77
2023/01/27 07:14:10;;;;;;;8.95;1.92;;;4.10;99.90;;;;;;5094341;28;20602;-77
2023/01/27 07:16:35;;;;;;;4.33;1.23;;;4.10;99.90;;;;;;5076030;28;20127;-76
2023/01/27 07:19:01;;;;;;;3.70;1.60;;;4.20;99.90;;;;;;5092199;28;20127;-77
2023/01/27 07:21:27;;;;;;;7.73;1.50;;;4.20;99.90;;;;;;5075946;28;20048;-77
2023/01/27 07:23:52;;;;;;;8.20;1.60;;;4.20;99.90;;;;;;5092765;28;20054;-78
2023/01/27 07:26:18;;;;;;;6.47;1.50;;;4.10;99.90;;;;;;5093797;28;20051;-77
2023/01/27 07:28:44;;;;;;;6.63;1.20;;;4.20;99.90;;;;;;5075285;28;20044;-77
2023/01/27 07:31:09;;;;;;;6.57;2.27;;;4.20;99.90;;;;;;5093245;28;20044;-76
2023/01/27 07:33:36;;;;;;;5.07;1.70;;;4.20;99.90;;;;;;5093744;28;20105;-77
2023/01/27 07:36:01;;;;;;;4.97;1.30;;;4.20;99.90;;;;;;5092287;28;20070;-77
2023/01/27 07:38:27;;;;;;;7.57;1.80;;;4.20;99.90;;;;;;5093584;28;20126;-77
2023/01/27 07:40:53;;;;;;;8.17;2.10;;;4.20;99.90;;;;;;5093314;28;20218;-78
2023/01/27 07:43:19;;;;;;;3.57;1.20;;;4.20;99.90;;;;;;5093112;28;20055;-77
2023/01/27 07:45:47;;;;;;;4.93;1.63;;;4.20;99.90;;;;;;5093227;28;20055;-78
2023/01/27 07:48:13;;;;;;;6.50;1.50;;;4.20;99.90;;;;;;5093464;28;20044;-76
2023/01/27 07:50:42;;;;;;;5.57;1.47;;;4.20;99.90;;;;;;5093397;28;20048;-76
2023/01/27 07:53:10;;;;;;;6.03;1.45;;;4.20;99.90;;;;;;5092453;28;20047;-72
2023/01/27 07:55:36;;;;;;;4.03;1.60;;;4.20;99.90;;;;;;5093359;28;20052;-75
2023/01/27 07:58:01;;;;;;;7.37;2.33;;;4.20;99.90;;;;;;5091958;28;20460;-77
2023/01/27 08:00:28;;;;;;;5.70;1.73;;;4.20;99.90;;;;;;5093229;28;20476;-77
2023/01/27 08:02:55;;;;;;;5.82;1.48;;;4.20;99.90;;;;;;5092904;28;20056;-75
2023/01/27 08:05:22;;;;;;;7.68;1.67;;;4.20;99.90;;;;;;5093241;28;20039;-75
2023/01/27 08:07:49;;;;;;;8.05;2.03;;;4.20;99.90;;;;;;5092885;28;20131;-75
2023/01/27 08:10:16;;;;;;;5.35;2.17;;;4.20;99.90;;;;;;5093077;28;20366;-76
2023/01/27 08:12:42;;;;;;;8.27;2.15;;;4.20;99.90;;;;;;5091996;28;20048;-76
2023/01/27 08:15:08;;;;;;;10.05;2.20;;;4.30;99.90;;;;;;5092713;28;20498;-75
2023/01/27 08:17:34;;;;;;;6.97;2.28;;;4.30;99.90;;;;;;5093208;28;20040;-76
2023/01/27 08:20:00;;;;;;;6.80;3.30;;;4.20;99.90;;;;;;5092681;28;20472;-75
2023/01/27 08:22:28;;;;;;;6.30;1.40;;;4.30;99.90;;;;;;5093208;28;20051;-75
2023/01/27 08:24:53;;;;;;;4.80;1.17;;;4.30;99.90;;;;;;5092360;28;20511;-75
2023/01/27 08:27:19;;;;;;;5.50;1.30;;;4.30;99.90;;;;;;5092747;28;20036;-76
2023/01/27 08:29:45;;;;;;;10.00;1.23;;;4.30;99.90;;;;;;5092845;28;20048;-78
2023/01/27 08:32:11;;;;;;;3.73;1.10;;;4.30;99.90;;;;;;5091358;28;20296;-76
2023/01/27 08:34:38;;;;;;;4.47;1.50;;;4.30;99.90;;;;;;5093313;28;20503;-75
2023/01/27 08:37:05;;;;;;;5.22;1.40;;;4.40;99.90;;;;;;5096801;28;20040;-76
2023/01/27 08:39:31;;;;;;;4.70;1.55;;;4.30;99.90;;;;;;5096799;28;20492;-75
2023/01/27 08:41:57;;;;;;;7.10;1.50;;;4.40;99.90;;;;;;5096744;28;20101;-75
2023/01/27 08:44:23;;;;;;;4.28;1.10;;;4.30;99.90;;;;;;5096841;28;20180;-75
2023/01/27 08:46:49;;;;;;;8.50;1.30;;;4.40;99.90;;;;;;5096571;28;20135;-77
2023/01/27 08:49:15;;;;;;;7.83;1.70;;;4.40;99.90;;;;;;5096692;28;20047;-76
2023/01/27 08:51:41;;;;;;;5.63;1.63;;;4.40;99.90;;;;;;5096688;28;20286;-75
2023/01/27 08:54:08;;;;;;;5.00;1.50;;;4.40;99.90;;;;;;5096390;28;20109;-76
2023/01/27 08:56:34;;;;;;;7.82;1.35;;;4.40;99.90;;;;;;5096675;28;20048;-76
2023/01/27 08:58:59;;;;;;;6.70;1.30;;;4.40;99.90;;;;;;5078079;28;20492;-76
2023/01/27 09:01:25;;;;;;;7.03;1.53;;;4.40;99.90;;;;;;5095551;28;20290;-76
2023/01/27 09:03:51;;;;;;;8.23;1.70;;;4.40;99.90;;;;;;5096347;28;20126;-76
2023/01/27 09:06:17;;;;;;;6.17;1.60;;;4.40;99.90;;;;;;5096468;28;20484;-76
2023/01/27 09:09:07;;;;;;;11.38;1.25;;;4.40;99.90;;;;;;5096555;28;20438;-75
2023/01/27 09:11:30;;;;;;;4.45;1.30;;;4.50;99.90;;;;;;5095542;28;20043;-76
2023/01/27 09:13:55;;;;;;;7.77;1.97;;;4.50;99.90;;;;;;5094209;28;20036;-75
2023/01/27 09:16:21;;;;;;;7.40;1.47;;;4.50;99.90;;;;;;5094391;28;20097;-75
2023/01/27 09:18:47;;;;;;;10.10;2.30;;;4.50;99.90;;;;;;5096188;28;20043;-75
2023/01/27 09:21:12;;;;;;;11.07;3.57;;;4.50;99.90;;;;;;5095953;28;20430;-74
2023/01/27 09:23:38;;;;;;;12.40;3.13;;;4.60;99.90;;;;;;5095891;28;20126;-75
2023/01/27 09:26:04;;;;;;;7.33;1.70;;;4.60;99.90;;;;;;5094853;28;20044;-75
2023/01/27 09:28:29;;;;;;;6.63;1.90;;;4.60;99.90;;;;;;5096235;28;20054;-75
2023/01/27 09:30:57;;;;;;;8.47;1.83;;;4.70;99.90;;;;;;5094747;28;20044;-75
2023/01/27 09:33:24;;;;;;;8.80;1.55;;;4.70;99.90;;;;;;5095602;28;20083;-72
2023/01/27 09:36:09;;;;;;;5.70;1.75;;;4.70;99.90;;;;;;5094927;28;20051;-73
2023/01/27 09:38:40;;;;;;;6.53;1.50;;;4.80;99.90;;;;;;5095920;28;20540;-74
2023/01/27 09:41:24;;;;;;;9.85;2.50;;;4.80;99.90;;;;;;5095813;28;20056;-75
2023/01/27 09:44:08;;;;;;;7.20;2.08;;;4.80;99.90;;;;;;5095933;28;20116;-74
2023/01/27 09:46:59;;;;;;;8.98;2.17;;;4.90;99.90;;;;;;5095403;28;20101;-74
2023/01/27 09:49:44;;;;;;;5.50;1.77;;;4.90;99.90;;;;;;5096089;28;20129;-73
2023/01/27 09:52:21;;;;;;;9.30;2.42;;;4.90;99.90;;;;;;5094784;28;20043;-74
2023/01/27 09:55:02;;;;;;;8.13;2.35;;;4.90;99.90;;;;;;5095173;28;20047;-75
2023/01/27 09:57:57;;;;;;;6.95;1.52;;;4.90;99.90;;;;;;5076317;28;20488;-75
2023/01/27 10:00:44;;;;;;;5.20;1.40;;;4.90;99.90;;;;;;5087886;28;20106;-75
2023/01/27 10:03:34;;;;;;;7.05;1.67;;;4.90;99.90;;;;;;5094346;28;20122;-75
2023/01/27 10:06:35;;;;;;;13.00;1.90;;;4.90;99.90;;;;;;5092108;28;20055;-78
2023/01/27 10:09:19;;;;;;;6.70;1.65;;;4.90;99.90;;;;;;5094674;28;20048;-78
2023/01/27 10:12:09;;;;;;;6.32;1.40;;;5.00;99.90;;;;;;5095709;28;20048;-80
2023/01/27 10:14:43;;;;;;;8.75;1.60;;;4.90;99.90;;;;;;5095196;28;20052;-81
2023/01/27 10:17:35;;;;;;;13.05;4.28;;;4.90;99.90;;;;;;5095115;28;20052;-83
2023/01/27 10:20:25;;;;;;;7.38;2.00;;;4.90;99.90;;;;;;5082316;28;20109;-80
2023/01/27 10:23:22;;;;;;;8.07;2.00;;;4.90;99.90;;;;;;5094137;28;20048;-84
2023/01/27 10:26:11;;;;;;;9.15;2.10;;;4.90;99.90;;;;;;5094067;28;20373;-78
2023/01/27 10:28:40;;;;;;;8.10;2.40;;;5.00;99.90;;;;;;5094962;28;20063;-78
2023/01/27 10:31:25;;;;;;;8.45;2.05;;;5.00;99.90;;;;;;5094005;28;20126;-79
2023/01/27 10:33:57;;;;;;;4.63;1.23;;;5.00;99.90;;;;;;5094981;28;20056;-79
2023/01/27 10:36:28;;;;;;;4.95;1.55;;;5.10;99.90;;;;;;5094623;28;20059;-80
2023/01/27 10:39:03;;;;;;;6.70;1.70;;;5.00;99.90;;;;;;5094813;28;20073;-80
2023/01/27 10:41:47;;;;;;;3.17;1.35;;;5.00;99.90;;;;;;5093634;28;20093;-76
2023/01/27 10:44:40;;;;;;;6.53;1.38;;;5.00;99.90;;;;;;5094338;28;20125;-79
2023/01/27 10:47:20;;;;;;;11.38;1.25;;;5.00;99.90;;;;;;5094145;28;20056;-78
2023/01/27 10:49:51;;;;;;;6.38;1.48;;;4.90;99.90;;;;;;5095008;28;20063;-77
2023/01/27 10:52:25;;;;;;;3.70;1.08;;;4.90;99.90;;;;;;5094272;28;20044;-78
2023/01/27 10:55:05;;;;;;;2.95;1.08;;;4.90;99.90;;;;;;5094360;28;20554;-78
2023/01/27 10:57:34;;;;;;;3.10;1.10;;;4.90;99.90;;;;;;5093481;28;20044;-77
2023/01/27 10:59:59;;;;;;;7.97;1.73;;;4.90;99.90;;;;;;5094359;28;20385;-79
2023/01/27 11:02:44;;;;;;;4.70;1.10;;;5.00;99.90;;;;;;5076111;28;20052;-79
2023/01/27 11:05:26;;;;;;;2.78;1.02;;;5.10;99.90;;;;;;5093165;28;20051;-81
2023/01/27 11:07:59;;;;;;;3.25;0.90;;;5.10;99.90;;;;;;5093282;28;20080;-81
2023/01/27 11:10:34;;;;;;;3.65;1.30;;;5.10;99.90;;;;;;5075982;28;20051;-78
2023/01/27 11:13:02;;;;;;;2.63;1.33;;;5.10;99.90;;;;;;5076318;28;20060;-75
2023/01/27 11:15:33;;;;;;;2.22;0.60;;;5.10;99.90;;;;;;5092486;28;20048;-75
2023/01/27 11:18:25;;;;;;;3.88;0.90;;;5.10;99.90;;;;;;5094012;28;20050;-75
2023/01/27 11:20:54;;;;;;;1.45;0.70;;;5.20;99.90;;;;;;5093233;28;20047;-75
2023/01/27 11:23:34;;;;;;;3.40;1.10;;;5.20;99.90;;;;;;5093749;28;20047;-75
2023/01/27 11:26:11;;;;;;;3.55;0.93;;;5.20;99.90;;;;;;5092610;28;20512;-74
2023/01/27 11:28:57;;;;;;;4.63;1.20;;;5.20;99.90;;;;;;5093754;28;20043;-74
2023/01/27 11:31:38;;;;;;;3.03;0.90;;;5.10;99.90;;;;;;5092331;28;20052;-74
2023/01/27 11:34:30;;;;;;;2.20;1.17;;;5.10;99.90;;;;;;5093735;28;20131;-75
2023/01/27 11:36:56;;;;;;;2.70;1.30;;;5.10;99.90;;;;;;5092426;28;20126;-75
2023/01/27 11:39:22;;;;;;;3.00;1.20;;;5.10;99.90;;;;;;5092457;28;20091;-75
2023/01/27 11:41:50;;;;;;;3.70;1.05;;;5.10;99.90;;;;;;5093435;28;20101;-75
2023/01/27 11:44:20;;;;;;;2.70;1.17;;;5.10;99.90;;;;;;5093315;28;20118;-75
2023/01/27 11:46:47;;;;;;;1.50;0.90;;;5.10;99.90;;;;;;5093708;28;20051;-75
2023/01/27 11:49:22;;;;;;;1.40;0.73;;;5.10;99.90;;;;;;5093093;28;20072;-75
2023/01/27 11:51:48;;;;;;;2.90;0.95;;;5.10;99.90;;;;;;5093750;28;20044;-75
2023/01/27 11:54:24;;;;;;;3.47;0.90;;;5.10;99.90;;;;;;5093050;28;20055;-76
2023/01/27 11:56:50;;;;;;;1.02;0.73;;;5.00;99.90;;;;;;5093321;28;20051;-75
2023/01/27 11:59:31;;;;;;;1.98;1.00;;;5.00;99.90;;;;;;5092876;28;20051;-76
2023/01/27 12:02:10;;;;;;;2.85;0.90;;;5.00;99.90;;;;;;5092492;28;20124;-77
2023/01/27 12:04:52;;;;;;;1.92;1.00;;;5.00;99.90;;;;;;5092625;28;20048;-82
2023/01/27 12:07:32;;;;;;;1.08;0.82;;;4.90;99.90;;;;;;5092810;28;20130;-76
2023/01/27 12:09:58;;;;;;;4.55;1.00;;;4.90;99.90;;;;;;5093078;28;20040;-76
2023/01/27 12:12:26;;;;;;;2.03;1.00;;;4.90;99.90;;;;;;5075166;28;20117;-75
2023/01/27 12:14:57;;;;;;;2.05;1.13;;;4.90;99.90;;;;;;5093173;28;20116;-76
2023/01/27 12:17:39;;;;;;;2.50;1.15;;;4.90;99.90;;;;;;5091552;28;20050;-76
2023/01/27 12:20:37;;;;;;;2.70;1.10;;;4.90;99.90;;;;;;5093420;28;20063;-76
2023/01/27 12:23:17;;;;;;;2.35;1.10;;;4.90;99.90;;;;;;5085109;28;20067;-75
2023/01/27 12:25:46;;;;;;;2.25;1.15;;;4.90;99.90;;;;;;5093131;28;20494;-75
2023/01/27 12:28:34;;;;;;;2.55;1.30;;;4.80;99.90;;;;;;5093007;28;20098;-75
2023/01/27 12:31:12;;;;;;;2.13;1.10;;;4.80;99.90;;;;;;5092146;28;20083;-75
2023/01/27 12:33:45;;;;;;;3.17;1.20;;;4.80;99.90;;;;;;5093265;28;20473;-75
2023/01/27 12:36:14;;;;;;;3.85;1.40;;;4.80;99.90;;;;;;5093260;28;20048;-76
2023/01/27 12:38:48;;;;;;;4.70;1.42;;;4.80;99.90;;;;;;5092985;28;20044;-75
2023/01/27 12:41:30;;;;;;;4.85;1.65;;;4.80;99.90;;;;;;5093036;28;20051;-76
2023/01/27 12:44:12;;;;;;;3.13;1.70;;;4.80;99.90;;;;;;5093278;28;20118;-76
2023/01/27 12:46:41;;;;;;;3.75;2.00;;;4.80;99.90;;;;;;5092805;28;20044;-76
2023/01/27 12:49:13;;;;;;;4.22;2.20;;;4.70;99.90;;;;;;5092896;28;20043;-76
2023/01/27 12:51:40;;;;;;;5.32;2.10;;;4.70;99.90;;;;;;5091712;28;20106;-76
2023/01/27 12:54:39;;;;;;;5.25;2.38;;;4.70;99.90;;;;;;5091885;28;20044;-76
2023/01/27 12:57:14;;;;;;;5.32;2.65;;;4.70;99.90;;;;;;5048275;28;20131;-76
2023/01/27 12:59:49;;;;;;;;;;;4.70;99.90;;;;;;5093126;28;20044;-76
2023/01/27 13:02:16;;;;;;;5.32;2.47;;;4.70;99.90;;;;;;5074913;28;20004;-76
2023/01/27 13:04:44;;;;;;;4.82;2.35;;;4.70;99.90;;;;;;5092989;28;20040;-76
2023/01/27 13:07:17;;;;;;;4.40;2.40;;;4.70;99.90;;;;;;5091913;28;20052;-76
2023/01/27 13:10:01;;;;;;;6.38;3.03;;;4.70;99.90;;;;;;5093084;28;20087;-76
2023/01/27 13:12:30;;;;;;;7.40;3.42;;;4.60;99.90;;;;;;5092482;28;20048;-75
2023/01/27 13:15:14;;;;;;;5.05;2.72;;;4.60;99.90;;;;;;5092653;28;20050;-75
2023/01/27 13:17:48;;;;;;;6.50;3.83;;;4.60;99.90;;;;;;5092499;28;20113;-76
2023/01/27 13:20:19;;;;;;;5.93;3.13;;;4.60;99.90;;;;;;5091825;28;20080;-76
2023/01/27 13:23:04;;;;;;;5.82;3.08;;;4.50;99.90;;;;;;5096487;28;20060;-75
2023/01/27 13:25:53;;;;;;;6.28;3.20;;;4.50;99.90;;;;;;5095251;28;20421;-76
2023/01/27 13:28:50;;;;;;;5.32;3.00;;;4.50;99.90;;;;;;5094977;28;20052;-76
2023/01/27 13:31:22;;;;;;;6.70;3.90;;;4.50;99.90;;;;;;5094987;28;20086;-75
2023/01/27 13:33:58;;;;;;;6.35;3.40;;;4.50;99.90;;;;;;5096371;28;20052;-75
2023/01/27 13:36:32;;;;;;;5.80;3.75;;;4.50;99.90;;;;;;5095898;28;20047;-75
2023/01/27 13:39:17;;;;;;;7.03;4.13;;;4.50;99.90;;;;;;5096100;28;20492;-75